Time;durP1;ratioP1;P1;durP2;ratioP2;P2;SDS_P1;SDS_P2;PMS_P1;PMS_P2;Temp;Humidity;BMP_temperature;BMP_pressure;BME280_temperature;BME280_humidity;BME280_pressure;Samples;Min_cycle;Max_cycle;Signal;HPM_P1;HPM_P2
2023/06/16 00:01:36;;;;;;;7.32;2.30;;;18.90;83.20;;;;;;5070822;28;20044;-59
2023/06/16 00:04:04;;;;;;;3.38;1.90;;;18.90;83.30;;;;;;5071100;28;20053;-60
2023/06/16 00:06:32;;;;;;;4.53;1.98;;;18.80;83.40;;;;;;5055783;28;20041;-60
2023/06/16 00:09:02;;;;;;;2.88;1.80;;;18.80;83.00;;;;;;5057509;28;20506;-62
2023/06/16 00:11:33;;;;;;;5.30;2.17;;;18.80;83.60;;;;;;5053250;28;20041;-59
2023/06/16 00:14:00;;;;;;;5.85;2.13;;;18.80;83.70;;;;;;5083804;28;20047;-60
2023/06/16 00:16:28;;;;;;;3.85;2.08;;;18.70;83.70;;;;;;5057676;28;20531;-62
2023/06/16 00:18:59;;;;;;;4.20;2.30;;;18.70;83.80;;;;;;5066278;28;20044;-64
2023/06/16 00:21:48;;;;;;;5.60;1.90;;;18.70;83.90;;;;;;5060151;28;20041;-61
2023/06/16 00:24:16;;;;;;;7.75;2.30;;;18.70;84.00;;;;;;5063534;28;20059;-60
2023/06/16 00:26:43;;;;;;;4.47;2.08;;;18.60;83.60;;;;;;5069751;28;20063;-60
2023/06/16 00:29:11;;;;;;;7.55;3.17;;;18.60;84.30;;;;;;5070330;28;20051;-59
2023/06/16 00:31:40;;;;;;;4.57;2.10;;;18.60;84.50;;;;;;5070676;28;20041;-60
2023/06/16 00:34:08;;;;;;;5.53;2.35;;;18.50;84.90;;;;;;5073237;28;20040;-59
2023/06/16 00:36:36;;;;;;;4.93;2.25;;;18.50;85.00;;;;;;5053935;28;20045;-60
2023/06/16 00:39:04;;;;;;;4.47;2.50;;;18.50;85.10;;;;;;5059518;28;20982;-60
2023/06/16 00:41:31;;;;;;;3.60;2.05;;;18.40;85.50;;;;;;5049802;28;20526;-59
2023/06/16 00:44:02;;;;;;;6.18;2.80;;;18.40;85.50;;;;;;5087635;28;20055;-60
2023/06/16 00:46:31;;;;;;;;;;;18.40;85.70;;;;;;5077424;28;20491;-61
2023/06/16 00:49:00;;;;;;;;;;;18.30;85.80;;;;;;5056364;28;19922;-59
2023/06/16 00:51:30;;;;;;;6.05;2.20;;;18.30;86.00;;;;;;5060657;28;20283;-60
2023/06/16 00:53:59;;;;;;;4.90;2.50;;;18.20;86.00;;;;;;5054115;28;20052;-60
2023/06/16 00:56:29;;;;;;;4.35;2.28;;;18.20;86.30;;;;;;5062307;28;20139;-62
2023/06/16 00:58:58;;;;;;;3.70;2.05;;;18.20;86.10;;;;;;5069388;28;20055;-65
2023/06/16 01:01:28;;;;;;;3.95;2.33;;;18.10;87.00;;;;;;5068699;28;20053;-64
2023/06/16 01:03:57;;;;;;;3.30;2.42;;;18.10;87.30;;;;;;5059621;28;20047;-60
2023/06/16 01:06:37;;;;;;;4.00;2.40;;;18.00;87.40;;;;;;5054751;28;20064;-62
2023/06/16 01:09:15;;;;;;;5.00;2.33;;;18.00;87.90;;;;;;5051072;28;20635;-60
2023/06/16 01:11:55;;;;;;;4.47;2.53;;;18.00;88.20;;;;;;5050158;28;20044;-60
2023/06/16 01:14:28;;;;;;;6.32;2.50;;;17.90;88.50;;;;;;5074165;28;20052;-59
2023/06/16 01:16:58;;;;;;;4.65;2.30;;;17.80;88.50;;;;;;5054352;28;20037;-59
2023/06/16 01:19:37;;;;;;;3.33;2.42;;;17.80;88.80;;;;;;5065391;28;20048;-61
2023/06/16 01:22:19;;;;;;;4.43;2.22;;;17.70;89.00;;;;;;5047753;28;20492;-65
2023/06/16 01:24:48;;;;;;;6.03;2.67;;;17.60;89.50;;;;;;5064855;28;20044;-63
2023/06/16 01:27:21;;;;;;;3.33;2.38;;;17.60;89.70;;;;;;5067170;28;20048;-61
2023/06/16 01:29:51;;;;;;;3.95;2.33;;;17.60;89.90;;;;;;5064518;28;20477;-60
2023/06/16 01:32:20;;;;;;;6.40;2.33;;;17.60;90.00;;;;;;5052009;28;20041;-59
2023/06/16 01:34:48;;;;;;;9.00;2.70;;;17.60;90.00;;;;;;5062188;28;20060;-61
2023/06/16 01:37:18;;;;;;;5.05;2.45;;;17.60;90.00;;;;;;5052236;28;20049;-62
2023/06/16 01:39:47;;;;;;;3.55;2.25;;;17.60;90.00;;;;;;5071417;28;20056;-63
2023/06/16 01:42:16;;;;;;;8.03;2.37;;;17.50;90.00;;;;;;5066746;28;20176;-61
2023/06/16 01:44:45;;;;;;;3.72;2.35;;;17.50;90.00;;;;;;5060372;28;20048;-60
2023/06/16 01:47:16;;;;;;;7.65;2.80;;;17.50;90.10;;;;;;5063550;28;20040;-65
2023/06/16 01:49:44;;;;;;;5.40;2.63;;;17.50;90.20;;;;;;5067777;28;20041;-60
2023/06/16 01:52:12;;;;;;;4.55;2.40;;;17.40;90.30;;;;;;5063167;28;20048;-59
2023/06/16 01:54:40;;;;;;;5.25;2.38;;;17.40;90.40;;;;;;5052056;28;20381;-59
2023/06/16 01:57:08;;;;;;;3.35;2.03;;;17.30;90.40;;;;;;5052156;28;20037;-60
2023/06/16 01:59:35;;;;;;;4.63;2.28;;;17.30;90.70;;;;;;5067125;28;20047;-59
2023/06/16 02:02:16;;;;;;;4.32;2.35;;;17.30;90.80;;;;;;5070970;28;20049;-60
2023/06/16 02:04:48;;;;;;;3.83;2.30;;;17.20;90.90;;;;;;5069946;28;20488;-61
2023/06/16 02:07:21;;;;;;;4.75;2.28;;;17.20;91.10;;;;;;5054164;28;20044;-61
2023/06/16 02:09:50;;;;;;;4.15;2.90;;;17.10;91.40;;;;;;5069388;28;20052;-64
2023/06/16 02:12:18;;;;;;;4.97;2.33;;;17.00;91.60;;;;;;5074827;28;20507;-68
2023/06/16 02:14:48;;;;;;;4.80;2.50;;;16.90;91.80;;;;;;5090501;28;20051;-67
2023/06/16 02:17:16;;;;;;;13.55;3.00;;;16.80;92.00;;;;;;5090895;28;20415;-69
2023/06/16 02:19:43;;;;;;;6.72;2.90;;;16.70;92.30;;;;;;5073170;28;20051;-66
2023/06/16 02:22:11;;;;;;;4.70;2.40;;;16.70;92.60;;;;;;5070597;28;20503;-68
2023/06/16 02:24:38;;;;;;;4.75;2.95;;;16.70;92.70;;;;;;5071615;28;20044;-61
2023/06/16 02:27:06;;;;;;;5.40;3.00;;;16.70;92.90;;;;;;5054019;28;20048;-60
2023/06/16 02:29:34;;;;;;;3.40;2.53;;;16.60;93.10;;;;;;5066429;28;20047;-60
2023/06/16 02:32:01;;;;;;;10.18;3.10;;;16.60;93.20;;;;;;5069527;28;20071;-61
2023/06/16 02:34:30;;;;;;;5.63;2.70;;;16.60;93.40;;;;;;5071447;28;20045;-59
2023/06/16 02:36:58;;;;;;;5.63;2.72;;;16.60;93.50;;;;;;5070404;28;20049;-59
2023/06/16 02:39:27;;;;;;;7.65;2.80;;;16.70;93.60;;;;;;5070177;28;20048;-61
2023/06/16 02:41:54;;;;;;;6.05;2.40;;;16.70;93.70;;;;;;5072478;28;20045;-59
2023/06/16 02:44:22;;;;;;;4.00;2.70;;;16.60;93.90;;;;;;5091763;28;20399;-64
2023/06/16 02:46:50;;;;;;;5.53;2.60;;;16.60;93.90;;;;;;5091520;28;20048;-60
2023/06/16 02:49:19;;;;;;;4.40;2.65;;;16.60;94.10;;;;;;5066110;28;20052;-63
2023/06/16 02:51:46;;;;;;;8.13;2.58;;;16.60;94.30;;;;;;5051361;28;20469;-59
2023/06/16 02:54:14;;;;;;;7.97;2.95;;;16.60;94.30;;;;;;5049897;28;20049;-60
2023/06/16 02:56:42;;;;;;;6.00;2.55;;;16.60;94.50;;;;;;5050027;28;20500;-60
2023/06/16 02:59:10;;;;;;;5.93;2.65;;;16.50;94.40;;;;;;5063512;28;20051;-60
2023/06/16 03:01:39;;;;;;;4.60;2.50;;;16.50;94.80;;;;;;5068014;28;20391;-60
2023/06/16 03:04:23;;;;;;;10.02;2.60;;;16.60;94.70;;;;;;5049683;28;20049;-59
2023/06/16 03:07:04;;;;;;;6.30;2.58;;;16.50;94.80;;;;;;5050078;28;20052;-59
2023/06/16 03:09:38;;;;;;;6.80;3.03;;;16.50;95.00;;;;;;5064577;28;20040;-61
2023/06/16 03:12:08;;;;;;;;;;;16.40;95.10;;;;;;5074764;28;20387;-59
2023/06/16 03:14:41;;;;;;;6.70;2.70;;;16.40;95.20;;;;;;5089865;28;19946;-60
2023/06/16 03:17:20;;;;;;;4.47;2.30;;;16.40;95.40;;;;;;5090221;28;20376;-59
2023/06/16 03:19:50;;;;;;;6.45;2.75;;;16.30;95.80;;;;;;5073803;28;20051;-59
2023/06/16 03:22:25;;;;;;;4.80;2.97;;;16.20;96.40;;;;;;5070015;28;20036;-60
2023/06/16 03:24:54;;;;;;;6.13;2.17;;;16.10;96.50;;;;;;5053045;28;20059;-64
2023/06/16 03:27:23;;;;;;;10.20;3.20;;;16.10;96.80;;;;;;5053289;28;20044;-66
2023/06/16 03:29:55;;;;;;;4.90;2.38;;;16.00;97.10;;;;;;5069787;28;20045;-66
2023/06/16 03:32:24;;;;;;;3.58;2.30;;;15.90;97.40;;;;;;5069437;28;20040;-61
2023/06/16 03:34:53;;;;;;;6.50;3.25;;;15.80;97.60;;;;;;5073554;28;20049;-59
2023/06/16 03:37:21;;;;;;;4.45;2.80;;;15.80;98.00;;;;;;5073210;28;20041;-59
2023/06/16 03:39:48;;;;;;;9.80;3.90;;;15.70;98.20;;;;;;5073203;28;20049;-58
2023/06/16 03:42:16;;;;;;;3.63;2.50;;;15.60;98.50;;;;;;5078994;28;20044;-58
2023/06/16 03:44:44;;;;;;;5.55;2.85;;;15.60;98.70;;;;;;5076850;28;20475;-59
2023/06/16 03:47:12;;;;;;;7.25;2.97;;;15.50;98.90;;;;;;5093779;28;20036;-68
2023/06/16 03:49:40;;;;;;;5.78;2.80;;;15.50;99.20;;;;;;5058824;28;20481;-67
2023/06/16 03:52:08;;;;;;;4.75;2.83;;;15.50;99.50;;;;;;5053114;28;20056;-67
2023/06/16 03:54:37;;;;;;;6.93;2.92;;;;;;;;;;5069625;28;20060;-68
2023/06/16 03:57:06;;;;;;;5.18;3.17;;;15.50;99.40;;;;;;5036350;28;20052;-68
2023/06/16 03:59:34;;;;;;;11.18;3.50;;;15.50;99.70;;;;;;5073212;28;20049;-68
2023/06/16 04:02:07;;;;;;;4.35;2.70;;;15.60;99.80;;;;;;5066487;28;20033;-68
2023/06/16 04:04:43;;;;;;;4.28;2.70;;;15.60;99.90;;;;;;5037259;28;20049;-68
2023/06/16 04:07:12;;;;;;;6.93;2.78;;;15.60;99.90;;;;;;5023351;28;20407;-68
2023/06/16 04:09:41;;;;;;;5.97;3.38;;;15.60;99.90;;;;;;5072887;28;20044;-66
2023/06/16 04:12:08;;;;;;;4.82;2.78;;;15.60;99.90;;;;;;5077229;28;20047;-68
2023/06/16 04:14:37;;;;;;;5.65;2.92;;;15.70;99.90;;;;;;5093138;28;20047;-68
2023/06/16 04:17:06;;;;;;;6.13;3.50;;;15.60;99.90;;;;;;5093169;28;20036;-67
2023/06/16 04:19:34;;;;;;;5.72;3.38;;;15.70;99.90;;;;;;5081897;28;20052;-61
2023/06/16 04:22:02;;;;;;;6.45;3.05;;;15.70;99.90;;;;;;5072791;28;20040;-63
2023/06/16 04:24:40;;;;;;;5.70;2.50;;;15.60;99.90;;;;;;5072516;28;20044;-60
2023/06/16 04:27:08;;;;;;;4.55;2.83;;;15.60;99.90;;;;;;5072761;28;20040;-61
2023/06/16 04:29:41;;;;;;;4.80;2.92;;;15.60;99.90;;;;;;5072702;28;20053;-61
2023/06/16 04:32:13;;;;;;;8.48;3.28;;;15.60;99.90;;;;;;5070138;28;20419;-61
2023/06/16 04:34:45;;;;;;;8.45;3.47;;;15.60;99.90;;;;;;5062064;28;20361;-59
2023/06/16 04:37:15;;;;;;;4.03;2.85;;;15.60;99.90;;;;;;5072700;28;20040;-59
2023/06/16 04:39:42;;;;;;;7.28;2.95;;;15.60;99.90;;;;;;5072193;28;20067;-59
2023/06/16 04:42:15;;;;;;;6.97;2.75;;;15.60;99.90;;;;;;5077686;28;20048;-59
2023/06/16 04:44:44;;;;;;;6.53;2.75;;;15.70;99.90;;;;;;5092445;28;20047;-60
2023/06/16 04:47:13;;;;;;;5.15;2.88;;;15.70;99.90;;;;;;5068264;28;20052;-60
2023/06/16 04:49:41;;;;;;;5.05;2.65;;;15.70;99.90;;;;;;5065989;28;20056;-59
2023/06/16 04:52:09;;;;;;;5.97;2.70;;;15.80;99.90;;;;;;5057455;28;20072;-59
2023/06/16 04:54:37;;;;;;;8.15;3.08;;;15.80;99.90;;;;;;5048432;28;20060;-59
2023/06/16 04:57:08;;;;;;;5.38;2.78;;;15.90;99.90;;;;;;5032905;28;20048;-59
2023/06/16 04:59:36;;;;;;;6.25;2.97;;;15.80;99.90;;;;;;5068210;28;20051;-61
2023/06/16 05:02:05;;;;;;;5.07;3.05;;;15.90;99.90;;;;;;5062205;28;20041;-61
2023/06/16 05:04:34;;;;;;;7.18;2.80;;;15.90;99.90;;;;;;5064361;28;20381;-59
2023/06/16 05:07:03;;;;;;;5.97;3.53;;;16.00;99.90;;;;;;5049237;28;20044;-60
2023/06/16 05:09:32;;;;;;;7.70;2.77;;;16.00;99.90;;;;;;5078070;28;20436;-59
2023/06/16 05:12:00;;;;;;;9.30;2.80;;;16.00;99.90;;;;;;5067851;28;20285;-59
2023/06/16 05:14:29;;;;;;;6.07;2.93;;;16.10;99.90;;;;;;5044531;28;20078;-59
2023/06/16 05:16:57;;;;;;;5.10;2.88;;;16.10;99.90;;;;;;5048609;28;20056;-64
2023/06/16 05:19:26;;;;;;;4.97;2.80;;;16.10;99.90;;;;;;5057644;28;20056;-60
2023/06/16 05:21:59;;;;;;;5.47;2.55;;;16.10;99.90;;;;;;5067740;28;20119;-63
2023/06/16 05:24:26;;;;;;;5.93;2.75;;;16.10;99.90;;;;;;5067734;28;20056;-60
2023/06/16 05:26:54;;;;;;;7.47;2.72;;;16.20;99.90;;;;;;5059622;28;20614;-60
2023/06/16 05:29:23;;;;;;;3.55;2.90;;;16.20;99.90;;;;;;5052646;28;20063;-61
2023/06/16 05:31:51;;;;;;;7.47;2.90;;;16.20;99.80;;;;;;5065966;28;20040;-59
2023/06/16 05:34:20;;;;;;;6.97;2.90;;;16.30;99.90;;;;;;5071738;28;20044;-60
2023/06/16 05:36:48;;;;;;;8.25;2.33;;;16.30;99.60;;;;;;5042954;28;20382;-63
2023/06/16 05:39:17;;;;;;;4.57;2.50;;;16.40;99.50;;;;;;5067832;28;20040;-66
2023/06/16 05:41:46;;;;;;;6.10;3.25;;;16.40;98.70;;;;;;5069106;28;20048;-68
2023/06/16 05:44:16;;;;;;;5.88;2.70;;;16.40;98.70;;;;;;5076522;28;20051;-67
2023/06/16 05:46:44;;;;;;;4.70;2.17;;;16.50;98.50;;;;;;5066812;28;20055;-62
2023/06/16 05:49:16;;;;;;;6.13;2.95;;;16.50;98.20;;;;;;5059154;28;20514;-68
2023/06/16 05:51:45;;;;;;;4.05;2.38;;;16.60;97.90;;;;;;5044425;28;20041;-62
2023/06/16 05:54:12;;;;;;;5.70;2.53;;;16.60;97.90;;;;;;5058249;28;20063;-59
2023/06/16 05:56:40;;;;;;;3.97;2.53;;;16.70;97.50;;;;;;5045561;28;20111;-59
2023/06/16 05:59:08;;;;;;;4.32;2.60;;;16.80;97.40;;;;;;5065153;28;20048;-59
2023/06/16 06:01:37;;;;;;;7.00;2.70;;;16.80;97.40;;;;;;5067712;28;20087;-62
2023/06/16 06:04:05;;;;;;;4.40;2.25;;;16.90;97.00;;;;;;5065665;28;20055;-65
2023/06/16 06:06:34;;;;;;;7.80;2.75;;;16.90;97.00;;;;;;5067393;28;20506;-65
2023/06/16 06:09:03;;;;;;;6.25;2.80;;;17.00;97.00;;;;;;5067124;28;20389;-63
2023/06/16 06:11:31;;;;;;;5.47;2.95;;;17.00;97.00;;;;;;5063820;28;20485;-66
2023/06/16 06:13:59;;;;;;;4.57;2.55;;;17.10;97.00;;;;;;5066725;28;20041;-62
2023/06/16 06:16:28;;;;;;;9.18;2.55;;;17.20;96.70;;;;;;5034218;28;20060;-63
2023/06/16 06:18:56;;;;;;;7.85;2.85;;;17.20;96.60;;;;;;5065892;28;20029;-59
2023/06/16 06:21:25;;;;;;;7.53;2.65;;;17.30;96.50;;;;;;5054360;28;20036;-60
2023/06/16 06:23:54;;;;;;;10.18;2.55;;;17.40;96.50;;;;;;5063135;28;20072;-58
2023/06/16 06:26:22;;;;;;;11.50;2.85;;;17.40;96.40;;;;;;5064765;28;20041;-58
2023/06/16 06:28:49;;;;;;;4.40;2.72;;;17.50;95.80;;;;;;5052641;28;20045;-57
2023/06/16 06:31:17;;;;;;;4.53;2.55;;;17.60;95.60;;;;;;5047048;28;20049;-63
2023/06/16 06:33:45;;;;;;;4.40;2.65;;;17.60;95.40;;;;;;5055493;28;20044;-61
2023/06/16 06:36:21;;;;;;;5.95;2.67;;;17.70;95.00;;;;;;5047075;28;20443;-67
2023/06/16 06:38:49;;;;;;;4.90;2.70;;;17.70;94.80;;;;;;5049228;28;20060;-57
2023/06/16 06:41:17;;;;;;;3.65;2.42;;;17.80;94.60;;;;;;5082719;28;20044;-64
2023/06/16 06:43:46;;;;;;;4.63;2.60;;;17.90;94.70;;;;;;5047634;28;20053;-66
2023/06/16 06:46:17;;;;;;;4.20;2.70;;;17.90;94.80;;;;;;5049022;28;20064;-65
2023/06/16 06:48:46;;;;;;;4.97;2.58;;;18.00;93.90;;;;;;5054480;28;20045;-58
2023/06/16 06:51:18;;;;;;;6.05;2.47;;;18.10;94.10;;;;;;5038046;28;20136;-59
2023/06/16 06:53:45;;;;;;;4.07;2.35;;;18.10;93.90;;;;;;5056962;28;20052;-58
2023/06/16 06:56:15;;;;;;;7.65;2.50;;;18.10;93.90;;;;;;5043626;28;20055;-60
2023/06/16 06:58:43;;;;;;;3.67;2.70;;;18.30;93.60;;;;;;5065612;28;20044;-63
2023/06/16 07:01:10;;;;;;;5.50;2.45;;;18.30;93.80;;;;;;5048872;28;20485;-69
2023/06/16 07:03:38;;;;;;;3.63;2.05;;;18.30;93.40;;;;;;5066224;28;20403;-60
2023/06/16 07:06:07;;;;;;;6.78;2.38;;;18.30;93.40;;;;;;5060358;28;20056;-65
2023/06/16 07:08:35;;;;;;;4.60;2.65;;;18.40;93.20;;;;;;5067996;28;20044;-66
2023/06/16 07:11:02;;;;;;;3.33;2.20;;;18.40;93.50;;;;;;5060519;28;20044;-60
2023/06/16 07:13:30;;;;;;;6.80;2.35;;;18.40;93.60;;;;;;5064264;28;20507;-67
2023/06/16 07:15:58;;;;;;;8.57;2.60;;;18.50;93.50;;;;;;5063307;28;20060;-62
2023/06/16 07:18:26;;;;;;;5.25;1.92;;;18.60;93.50;;;;;;5063290;28;20040;-63
2023/06/16 07:20:54;;;;;;;4.28;2.55;;;18.70;93.70;;;;;;5054978;28;20048;-60
2023/06/16 07:23:21;;;;;;;5.05;2.67;;;18.70;93.30;;;;;;5060443;28;20044;-61
2023/06/16 07:25:49;;;;;;;3.92;2.55;;;18.90;92.70;;;;;;5071682;28;20053;-62
2023/06/16 07:28:17;;;;;;;5.80;2.35;;;18.90;92.90;;;;;;5071011;28;20052;-59
2023/06/16 07:30:44;;;;;;;5.72;2.50;;;18.90;92.50;;;;;;5067755;28;20044;-58
2023/06/16 07:33:12;;;;;;;6.35;3.03;;;19.00;92.50;;;;;;5067816;28;20522;-59
2023/06/16 07:35:40;;;;;;;4.13;2.65;;;19.10;92.60;;;;;;5059251;28;20037;-62
2023/06/16 07:38:08;;;;;;;8.15;2.58;;;19.10;92.70;;;;;;5051714;28;20044;-59
2023/06/16 07:40:36;;;;;;;4.25;2.90;;;19.20;92.70;;;;;;5068555;28;20514;-60
2023/06/16 07:43:04;;;;;;;8.55;2.42;;;19.30;92.70;;;;;;5060428;28;20060;-59
2023/06/16 07:45:33;;;;;;;5.45;2.60;;;19.40;92.70;;;;;;5069370;28;20617;-65
2023/06/16 07:48:02;;;;;;;3.90;2.30;;;19.40;92.60;;;;;;5069634;28;20045;-60
2023/06/16 07:50:30;;;;;;;5.25;3.13;;;19.50;92.30;;;;;;5058937;28;20298;-62
2023/06/16 07:52:59;;;;;;;3.75;2.60;;;19.60;92.40;;;;;;5056467;28;20082;-58
2023/06/16 07:55:26;;;;;;;6.88;3.03;;;19.70;92.10;;;;;;5069671;28;20055;-62
2023/06/16 07:57:54;;;;;;;4.75;2.85;;;19.80;92.30;;;;;;5070624;28;20051;-66
2023/06/16 08:00:22;;;;;;;6.05;2.75;;;19.80;92.10;;;;;;5069734;28;20056;-62
2023/06/16 08:02:50;;;;;;;6.82;2.83;;;19.80;92.00;;;;;;5051995;28;20408;-58
2023/06/16 08:05:20;;;;;;;4.68;2.90;;;19.90;92.10;;;;;;5054117;28;20609;-58
2023/06/16 08:07:48;;;;;;;4.95;2.58;;;20.00;92.20;;;;;;5067934;28;20064;-57
2023/06/16 08:10:19;;;;;;;5.68;2.97;;;20.10;92.20;;;;;;5058194;28;20582;-65
2023/06/16 08:12:49;;;;;;;6.25;3.30;;;20.20;92.00;;;;;;5055836;28;20037;-63
2023/06/16 08:15:18;;;;;;;4.97;2.83;;;20.20;92.20;;;;;;5050728;28;20063;-58
2023/06/16 08:17:45;;;;;;;4.22;2.88;;;20.40;91.80;;;;;;5058767;28;20399;-58
2023/06/16 08:20:13;;;;;;;5.63;3.33;;;20.40;92.10;;;;;;5070541;28;20052;-60
2023/06/16 08:22:41;;;;;;;5.05;2.75;;;20.50;92.20;;;;;;5048885;28;20060;-58
2023/06/16 08:25:09;;;;;;;6.65;3.17;;;20.50;92.30;;;;;;5050585;28;20056;-58
2023/06/16 08:27:37;;;;;;;5.20;2.58;;;20.60;92.30;;;;;;5054261;28;20059;-59
2023/06/16 08:30:05;;;;;;;3.92;2.75;;;20.70;92.30;;;;;;5069503;28;20051;-66
2023/06/16 08:32:34;;;;;;;8.88;3.03;;;20.80;92.20;;;;;;5070308;28;20051;-58
2023/06/16 08:35:02;;;;;;;7.43;3.33;;;20.90;91.80;;;;;;5068810;28;20060;-62
2023/06/16 08:37:31;;;;;;;5.65;2.83;;;21.00;91.40;;;;;;5062514;28;20519;-64
2023/06/16 08:39:59;;;;;;;7.22;3.38;;;21.00;91.90;;;;;;5065536;28;20601;-68
2023/06/16 08:42:29;;;;;;;7.43;3.03;;;21.10;91.80;;;;;;5069155;28;20056;-58
2023/06/16 08:45:00;;;;;;;7.90;3.28;;;21.20;91.50;;;;;;5069812;28;20044;-58
2023/06/16 08:47:28;;;;;;;7.10;3.47;;;21.30;91.60;;;;;;5067816;28;20041;-70
2023/06/16 08:49:56;;;;;;;4.30;2.85;;;21.30;91.20;;;;;;5068548;28;20059;-66
2023/06/16 08:52:28;;;;;;;5.85;2.92;;;21.40;91.20;;;;;;5051751;28;20487;-61
2023/06/16 08:55:13;;;;;;;6.97;3.42;;;21.40;91.20;;;;;;5050494;28;20045;-62
2023/06/16 08:57:46;;;;;;;4.90;2.97;;;21.60;91.30;;;;;;5055042;28;20048;-58
2023/06/16 09:00:16;;;;;;;8.52;3.17;;;21.60;91.10;;;;;;5065838;28;20041;-59
2023/06/16 09:02:49;;;;;;;4.85;2.90;;;21.70;90.50;;;;;;5061075;28;20385;-66
2023/06/16 09:05:18;;;;;;;5.07;2.85;;;21.70;90.70;;;;;;5051681;28;20057;-61
2023/06/16 09:07:47;;;;;;;5.65;2.80;;;21.80;90.50;;;;;;5055715;28;20048;-59
2023/06/16 09:10:16;;;;;;;7.90;2.60;;;21.90;90.40;;;;;;5057780;28;20063;-59
2023/06/16 09:12:50;;;;;;;10.10;3.60;;;22.00;90.70;;;;;;5074644;28;20033;-59
2023/06/16 09:15:18;;;;;;;5.18;3.05;;;22.10;90.40;;;;;;5069770;28;20056;-58
2023/06/16 09:17:48;;;;;;;6.70;2.80;;;22.20;90.10;;;;;;5069370;28;20071;-61
2023/06/16 09:20:18;;;;;;;3.90;2.80;;;22.20;89.90;;;;;;5069149;28;20464;-58
2023/06/16 09:22:56;;;;;;;6.57;2.63;;;22.30;90.10;;;;;;5068939;28;20044;-59
2023/06/16 09:25:25;;;;;;;6.55;3.20;;;22.30;89.80;;;;;;5053129;28;20412;-59
2023/06/16 09:27:54;;;;;;;5.38;3.22;;;22.40;88.60;;;;;;5057367;28;20044;-59
2023/06/16 09:30:30;;;;;;;9.00;3.22;;;22.50;88.40;;;;;;5057416;28;20041;-60
2023/06/16 09:32:58;;;;;;;5.18;3.08;;;22.50;88.20;;;;;;5059143;28;20063;-59
2023/06/16 09:35:28;;;;;;;6.32;3.05;;;22.70;87.70;;;;;;5075818;28;20044;-60
2023/06/16 09:38:00;;;;;;;7.20;2.97;;;22.60;88.10;;;;;;5068705;28;20049;-59
2023/06/16 09:40:30;;;;;;;8.68;3.17;;;22.80;88.00;;;;;;5064560;28;20480;-59
2023/06/16 09:43:00;;;;;;;9.35;3.25;;;22.90;88.00;;;;;;5077258;28;20052;-64
2023/06/16 09:45:30;;;;;;;8.77;3.50;;;22.90;88.40;;;;;;5067829;28;20413;-59
2023/06/16 09:48:06;;;;;;;4.10;3.13;;;23.10;89.00;;;;;;5069021;28;20052;-59
2023/06/16 09:50:36;;;;;;;6.78;2.83;;;23.20;87.30;;;;;;5067393;28;20052;-58
2023/06/16 09:53:06;;;;;;;4.90;2.90;;;23.30;86.40;;;;;;5071270;28;20499;-58
2023/06/16 09:55:38;;;;;;;5.68;2.80;;;23.40;86.30;;;;;;5066182;28;20045;-59
2023/06/16 09:58:06;;;;;;;6.55;2.90;;;23.50;86.20;;;;;;5057326;28;20056;-60
2023/06/16 10:00:34;;;;;;;7.00;2.88;;;23.60;85.70;;;;;;5049118;28;20053;-65
2023/06/16 10:03:07;;;;;;;5.57;2.80;;;23.60;85.00;;;;;;5050697;28;20053;-59
2023/06/16 10:05:37;;;;;;;7.28;2.95;;;23.70;84.70;;;;;;5062841;28;20049;-60
2023/06/16 10:08:06;;;;;;;3.22;2.67;;;23.80;84.60;;;;;;5065918;28;20044;-68
2023/06/16 10:10:41;;;;;;;5.47;3.30;;;23.90;84.20;;;;;;5052044;28;20049;-62
2023/06/16 10:13:10;;;;;;;3.85;2.40;;;24.00;83.50;;;;;;5050810;28;20041;-75
2023/06/16 10:15:40;;;;;;;5.25;3.20;;;24.10;83.60;;;;;;5068216;28;20400;-73
2023/06/16 10:18:11;;;;;;;4.68;2.75;;;24.20;82.60;;;;;;5067184;28;20048;-74
2023/06/16 10:20:40;;;;;;;7.22;3.05;;;24.20;83.50;;;;;;5068345;28;20484;-72
2023/06/16 10:23:10;;;;;;;6.60;3.10;;;24.30;83.50;;;;;;5067900;28;20079;-59
2023/06/16 10:25:39;;;;;;;5.97;2.78;;;24.40;82.60;;;;;;5062709;28;20052;-60
2023/06/16 10:28:13;;;;;;;5.47;3.03;;;24.50;83.00;;;;;;5063378;28;20052;-60
2023/06/16 10:30:43;;;;;;;5.55;3.13;;;24.50;83.10;;;;;;5056026;28;20056;-60
2023/06/16 10:33:22;;;;;;;7.28;3.05;;;24.70;82.80;;;;;;5061192;28;20692;-70
2023/06/16 10:35:55;;;;;;;6.20;3.10;;;24.80;81.90;;;;;;5050439;28;20056;-59
2023/06/16 10:38:36;;;;;;;4.70;3.00;;;24.90;80.80;;;;;;5067531;28;20071;-60
2023/06/16 10:41:06;;;;;;;5.70;2.92;;;25.00;80.80;;;;;;5061113;28;20059;-62
2023/06/16 10:43:34;;;;;;;5.88;3.15;;;25.10;80.70;;;;;;5079681;28;20048;-58
2023/06/16 10:46:13;;;;;;;5.78;2.83;;;25.20;80.70;;;;;;5066876;28;20071;-61
2023/06/16 10:48:57;;;;;;;5.72;2.78;;;25.30;80.60;;;;;;5063645;28;20052;-59
2023/06/16 10:51:52;;;;;;;3.97;2.60;;;25.40;79.70;;;;;;5068135;28;20055;-67
2023/06/16 10:54:32;;;;;;;7.28;3.08;;;25.50;80.40;;;;;;5070260;28;20045;-59
2023/06/16 10:57:07;;;;;;;3.78;2.90;;;25.70;80.30;;;;;;5067003;28;20044;-59
2023/06/16 11:00:11;;;;;;;7.88;3.25;;;25.70;80.60;;;;;;5048006;28;20515;-61
2023/06/16 11:02:59;;;;;;;5.38;3.25;;;25.90;80.30;;;;;;5059146;28;20526;-61
2023/06/16 11:05:41;;;;;;;7.57;2.75;;;26.00;79.50;;;;;;5047407;28;20041;-59
2023/06/16 11:08:16;;;;;;;5.40;3.33;;;26.00;79.50;;;;;;5047134;28;20424;-61
2023/06/16 11:10:49;;;;;;;4.80;2.80;;;26.00;77.90;;;;;;5055074;28;20040;-61
2023/06/16 11:13:22;;;;;;;5.07;2.88;;;26.10;78.50;;;;;;5068555;28;20044;-58
2023/06/16 11:15:53;;;;;;;4.35;2.65;;;26.10;79.20;;;;;;5067902;28;20051;-58
2023/06/16 11:18:28;;;;;;;5.18;3.05;;;26.20;77.40;;;;;;5067576;28;20352;-73
2023/06/16 11:21:00;;;;;;;7.05;2.90;;;26.10;77.80;;;;;;5060977;28;20056;-59
2023/06/16 11:23:28;;;;;;;8.85;4.30;;;26.10;78.10;;;;;;5058457;28;20052;-59
2023/06/16 11:26:08;;;;;;;7.70;3.17;;;26.20;78.80;;;;;;5053282;28;20507;-65
2023/06/16 11:28:40;;;;;;;11.57;3.50;;;26.30;78.80;;;;;;5059796;28;20715;-59
2023/06/16 11:31:10;;;;;;;8.57;3.55;;;26.50;78.70;;;;;;5049917;28;20057;-58
2023/06/16 11:33:39;;;;;;;5.28;3.25;;;26.50;77.90;;;;;;5066403;28;20531;-58
2023/06/16 11:36:18;;;;;;;8.07;3.10;;;26.60;78.10;;;;;;5060798;28;20501;-59
2023/06/16 11:38:47;;;;;;;8.75;2.97;;;26.60;77.50;;;;;;5059913;28;20048;-59
2023/06/16 11:41:23;;;;;;;6.75;3.67;;;26.70;77.80;;;;;;5062908;28;20041;-59
2023/06/16 11:43:52;;;;;;;5.93;3.28;;;26.70;76.50;;;;;;5070116;28;20407;-59
2023/06/16 11:46:26;;;;;;;8.93;3.00;;;26.80;77.00;;;;;;5066218;28;20059;-58
2023/06/16 11:48:54;;;;;;;11.77;3.15;;;26.90;76.80;;;;;;5065963;28;20051;-59
2023/06/16 11:51:23;;;;;;;11.65;3.50;;;27.10;77.60;;;;;;5066123;28;20079;-58
2023/06/16 11:53:52;;;;;;;7.00;2.83;;;27.30;77.60;;;;;;5074777;28;20056;-60
2023/06/16 11:56:23;;;;;;;5.55;2.83;;;27.50;76.30;;;;;;5060070;28;20041;-58
2023/06/16 11:58:52;;;;;;;10.50;3.10;;;27.60;75.70;;;;;;5065287;28;20041;-59
2023/06/16 12:01:21;;;;;;;;;;;27.80;73.60;;;;;;5054204;28;20052;-61
2023/06/16 12:03:50;;;;;;;7.93;2.67;;;28.00;73.60;;;;;;5074981;28;19939;-61
2023/06/16 12:06:35;;;;;;;5.45;3.05;;;28.20;73.70;;;;;;5061646;28;20055;-61
2023/06/16 12:09:04;;;;;;;5.32;2.83;;;28.40;72.60;;;;;;5065570;28;20045;-62
2023/06/16 12:11:34;;;;;;;4.28;2.40;;;28.50;72.30;;;;;;5065885;28;20400;-61
2023/06/16 12:14:02;;;;;;;4.85;2.67;;;28.70;72.80;;;;;;5086420;28;20044;-61
2023/06/16 12:16:30;;;;;;;6.10;2.75;;;28.90;71.60;;;;;;5090835;28;20059;-62
2023/06/16 12:18:59;;;;;;;7.90;3.10;;;29.00;70.90;;;;;;5074709;28;20056;-62
2023/06/16 12:21:28;;;;;;;4.95;2.63;;;29.20;70.30;;;;;;5070596;28;20472;-62
2023/06/16 12:24:00;;;;;;;3.15;2.58;;;29.40;69.50;;;;;;5082823;28;20403;-61
2023/06/16 12:26:39;;;;;;;6.35;2.80;;;29.50;68.90;;;;;;5083369;28;20051;-68
2023/06/16 12:29:11;;;;;;;3.22;2.58;;;29.40;68.40;;;;;;5067063;28;20052;-62
2023/06/16 12:31:56;;;;;;;4.70;2.70;;;29.40;68.20;;;;;;5064817;28;20036;-63
2023/06/16 12:34:32;;;;;;;3.47;2.40;;;29.60;68.50;;;;;;5064467;28;20041;-63
2023/06/16 12:37:13;;;;;;;5.88;2.80;;;29.80;68.30;;;;;;5070354;28;20048;-62
2023/06/16 12:39:41;;;;;;;7.85;3.20;;;30.00;68.10;;;;;;5070012;28;20408;-61
2023/06/16 12:42:12;;;;;;;5.15;3.15;;;30.20;67.70;;;;;;5070800;28;20046;-67
2023/06/16 12:44:44;;;;;;;5.10;3.03;;;30.50;67.00;;;;;;5063128;28;20053;-63
2023/06/16 12:47:21;;;;;;;6.95;2.65;;;30.60;65.80;;;;;;5050805;28;20056;-64
2023/06/16 12:49:54;;;;;;;3.03;2.58;;;30.70;66.00;;;;;;5070080;28;20055;-61
2023/06/16 12:52:23;;;;;;;9.43;3.03;;;30.70;65.60;;;;;;5070486;28;20049;-73
2023/06/16 12:54:52;;;;;;;9.27;2.95;;;30.80;66.10;;;;;;5069517;28;20057;-62
2023/06/16 12:57:21;;;;;;;4.53;2.58;;;31.00;65.80;;;;;;5064542;28;20045;-62
2023/06/16 12:59:48;;;;;;;7.30;2.80;;;31.10;64.00;;;;;;5069470;28;20044;-62
2023/06/16 13:02:16;;;;;;;7.78;2.70;;;31.30;64.30;;;;;;5052832;28;20056;-73
2023/06/16 13:04:44;;;;;;;6.97;2.85;;;31.50;64.70;;;;;;5072131;28;20556;-65